createdAt,value
2022-09-10T00:00:06.253Z,80.35
2022-09-10T00:02:32.626Z,60.70
2022-09-10T00:05:02.246Z,64.20
2022-09-10T00:07:28.836Z,75.22
2022-09-10T00:09:55.135Z,106.90
2022-09-10T00:12:21.449Z,120.78
2022-09-10T00:14:47.724Z,99.40
2022-09-10T00:17:13.977Z,99.63
2022-09-10T00:19:40.249Z,112.05
2022-09-10T00:22:06.516Z,106.18
2022-09-10T00:24:34.421Z,109.50
2022-09-10T00:27:00.692Z,111.78
2022-09-10T00:29:27.838Z,106.38
2022-09-10T00:31:54.861Z,103.65
2022-09-10T00:34:21.134Z,102.28
2022-09-10T00:36:47.456Z,107.95
2022-09-10T00:39:13.737Z,96.63
2022-09-10T00:41:40.337Z,98.07
2022-09-10T00:44:06.615Z,96.32
2022-09-10T00:46:32.863Z,100.97
2022-09-10T00:48:59.164Z,93.95
2022-09-10T00:51:26.272Z,92.88
2022-09-10T00:53:52.465Z,90.37
2022-09-10T00:56:18.719Z,94.38
2022-09-10T00:58:45.695Z,96.47
2022-09-10T01:01:11.969Z,93.60
2022-09-10T01:03:38.253Z,95.40
2022-09-10T01:06:04.529Z,80.93
2022-09-10T01:08:31.281Z,68.10
2022-09-10T01:10:57.757Z,73.07
2022-09-10T01:13:24.169Z,65.43
2022-09-10T01:15:50.432Z,65.35
2022-09-10T01:18:16.810Z,65.55
2022-09-10T01:20:43.624Z,58.38
2022-09-10T01:23:15.718Z,50.72
2022-09-10T01:25:43.809Z,55.03
2022-09-10T01:28:10.072Z,56.83
2022-09-10T01:30:37.121Z,54.28
2022-09-10T01:33:04.016Z,65.17
2022-09-10T01:35:30.352Z,61.65
2022-09-10T01:37:56.613Z,60.33
2022-09-10T01:40:29.700Z,57.28
2022-09-10T01:42:56.376Z,54.92
2022-09-10T01:45:24.298Z,55.78
2022-09-10T01:50:17.529Z,51.27
2022-09-10T01:52:43.829Z,54.30
2022-09-10T01:55:10.087Z,54.88
2022-09-10T01:57:36.717Z,55.65
2022-09-10T02:00:03.065Z,58.33
2022-09-10T02:02:29.321Z,70.18
2022-09-10T02:04:55.608Z,68.30
2022-09-10T02:07:22.525Z,67.28
2022-09-10T02:09:48.955Z,53.92
2022-09-10T02:12:15.216Z,62.03
2022-09-10T02:14:41.467Z,69.65
2022-09-10T02:17:07.734Z,62.50
2022-09-10T02:19:33.987Z,48.15
2022-09-10T02:22:00.942Z,48.97
2022-09-10T02:24:27.214Z,58.78
2022-09-10T02:26:54.796Z,67.53
2022-09-10T02:29:21.051Z,71.00
2022-09-10T02:31:47.445Z,83.93
2022-09-10T02:34:15.748Z,85.05
2022-09-10T02:36:42.019Z,80.90
2022-09-10T02:39:08.276Z,77.75
2022-09-10T02:41:34.907Z,81.35
2022-09-10T02:44:01.840Z,81.57
2022-09-10T02:46:28.423Z,87.30
2022-09-10T02:48:55.081Z,87.18
2022-09-10T02:51:21.357Z,81.80
2022-09-10T02:53:47.660Z,86.25
2022-09-10T02:56:13.975Z,86.72
2022-09-10T02:58:40.316Z,77.80
2022-09-10T03:01:06.954Z,74.75
2022-09-10T03:03:33.260Z,71.70
2022-09-10T03:05:59.511Z,72.57
2022-09-10T03:08:26.459Z,73.32
2022-09-10T03:10:52.729Z,76.05
2022-09-10T03:13:18.998Z,87.90
2022-09-10T03:15:45.599Z,76.78
2022-09-10T03:18:12.715Z,80.10
2022-09-10T03:20:40.306Z,80.67
2022-09-10T03:23:06.820Z,82.20
2022-09-10T03:25:33.084Z,73.47
2022-09-10T03:27:59.815Z,75.70
2022-09-10T03:30:26.079Z,82.20
2022-09-10T03:32:54.011Z,77.70
2022-09-10T03:35:20.314Z,85.65
2022-09-10T03:37:46.571Z,82.85
2022-09-10T03:40:12.910Z,82.75
2022-09-10T03:42:39.203Z,80.60
2022-09-10T03:45:05.485Z,81.97
2022-09-10T03:47:31.754Z,84.13
2022-09-10T03:49:59.688Z,80.20
2022-09-10T03:52:26.521Z,80.63
2022-09-10T03:54:52.785Z,74.75
2022-09-10T03:57:19.061Z,76.80
2022-09-10T03:59:45.997Z,76.68
2022-09-10T04:02:12.309Z,76.28
2022-09-10T04:04:38.572Z,80.50
2022-09-10T04:07:04.853Z,77.97
2022-09-10T04:09:32.457Z,73.20
2022-09-10T04:11:58.870Z,69.13
2022-09-10T04:14:26.217Z,77.18
2022-09-10T04:16:52.483Z,78.40
2022-09-10T04:19:18.744Z,77.75
2022-09-10T04:21:44.998Z,74.70
2022-09-10T04:24:11.255Z,81.60
2022-09-10T04:26:37.527Z,76.57
2022-09-10T04:29:03.796Z,77.47
2022-09-10T04:31:30.188Z,78.47
2022-09-10T04:33:56.533Z,84.53
2022-09-10T04:36:22.845Z,81.28
2022-09-10T04:38:49.105Z,80.43
2022-09-10T04:41:15.700Z,73.85
2022-09-10T04:43:41.981Z,71.50
2022-09-10T04:46:08.322Z,59.28
2022-09-10T04:48:35.008Z,63.75
2022-09-10T04:51:17.745Z,56.92
2022-09-10T04:53:44.312Z,56.25
2022-09-10T04:56:12.513Z,62.35
2022-09-10T04:58:39.421Z,60.33
2022-09-10T05:01:05.853Z,66.63
2022-09-10T05:03:32.271Z,63.40
2022-09-10T05:05:58.603Z,69.68
2022-09-10T05:08:24.863Z,69.38
2022-09-10T05:10:51.476Z,68.65
2022-09-10T05:13:18.015Z,72.95
2022-09-10T05:15:44.308Z,72.05
2022-09-10T05:18:10.918Z,75.25
2022-09-10T05:20:37.237Z,76.00
2022-09-10T05:23:03.534Z,75.35
2022-09-10T05:25:29.814Z,71.35
2022-09-10T05:27:56.129Z,83.07
2022-09-10T05:30:22.384Z,69.20
2022-09-10T05:32:48.645Z,70.40
2022-09-10T05:35:14.909Z,81.43
2022-09-10T05:37:41.188Z,68.70
2022-09-10T05:40:09.149Z,72.32
2022-09-10T05:45:02.039Z,69.72
2022-09-10T05:47:28.314Z,67.93
2022-09-10T05:49:55.122Z,71.40
2022-09-10T05:52:21.405Z,76.03
2022-09-10T05:54:47.667Z,78.03
2022-09-10T05:57:13.942Z,80.95
2022-09-10T05:59:40.201Z,76.28
2022-09-10T06:02:06.603Z,77.03
2022-09-10T06:04:32.947Z,68.70
2022-09-10T06:07:01.755Z,71.90
2022-09-10T06:09:28.488Z,71.20
2022-09-10T06:11:54.766Z,61.47
2022-09-10T06:14:21.067Z,70.75
2022-09-10T06:16:49.324Z,73.20
2022-09-10T06:19:15.650Z,71.85
2022-09-10T06:21:41.908Z,84.35
2022-09-10T06:24:08.525Z,87.85
2022-09-10T06:26:35.311Z,93.75
2022-09-10T06:29:01.567Z,88.15
2022-09-10T06:31:28.412Z,65.05
2022-09-10T06:33:54.685Z,54.42
2022-09-10T06:36:20.960Z,56.40
2022-09-10T06:38:49.299Z,74.70
2022-09-10T06:41:17.025Z,88.95
2022-09-10T06:43:43.692Z,107.25
2022-09-10T06:46:26.854Z,89.93
2022-09-10T06:49:00.746Z,85.07
2022-09-10T06:51:27.071Z,93.00
2022-09-10T06:53:53.348Z,81.22
2022-09-10T06:56:19.643Z,84.22
2022-09-10T06:58:45.900Z,85.82
2022-09-10T07:01:12.225Z,60.70
2022-09-10T07:03:38.530Z,76.60
2022-09-10T07:06:04.865Z,60.42
2022-09-10T07:08:31.355Z,53.88
2022-09-10T07:10:59.341Z,57.97
2022-09-10T07:15:53.770Z,49.83
2022-09-10T07:18:20.073Z,49.88
2022-09-10T07:20:46.509Z,55.78
2022-09-10T07:23:13.164Z,74.25
2022-09-10T07:25:39.492Z,74.40
2022-09-10T07:28:06.510Z,72.70
2022-09-10T07:30:32.749Z,67.97
2022-09-10T07:32:59.515Z,76.85
2022-09-10T07:35:25.763Z,70.90
2022-09-10T07:37:52.036Z,76.93
2022-09-10T07:40:18.295Z,92.60
2022-09-10T07:42:47.980Z,93.07
2022-09-10T07:45:16.167Z,91.32
2022-09-10T07:47:42.807Z,78.30
2022-09-10T07:50:09.055Z,92.22
2022-09-10T07:52:35.322Z,89.85
2022-09-10T07:55:01.578Z,92.85
2022-09-10T07:57:28.559Z,90.20
2022-09-10T07:59:54.842Z,89.60
2022-09-10T08:02:22.021Z,109.40
2022-09-10T08:04:48.309Z,86.00
2022-09-10T08:07:17.145Z,78.40
2022-09-10T08:09:43.663Z,85.93
2022-09-10T08:12:09.921Z,92.57
2022-09-10T08:14:39.327Z,96.38
2022-09-10T08:17:05.707Z,86.60
2022-09-10T08:19:34.020Z,87.78
2022-09-10T08:22:00.302Z,76.20
2022-09-10T08:24:27.606Z,100.13
2022-09-10T08:26:54.532Z,76.50
2022-09-10T08:29:20.715Z,66.60
2022-09-10T08:31:47.488Z,82.32
2022-09-10T08:34:13.763Z,75.78
2022-09-10T08:36:40.034Z,76.78
2022-09-10T08:39:08.386Z,64.63
2022-09-10T08:41:35.665Z,71.63
2022-09-10T08:44:03.271Z,65.57
2022-09-10T08:46:29.552Z,74.63
2022-09-10T08:48:55.812Z,68.28
2022-09-10T08:51:25.152Z,64.18
2022-09-10T08:53:51.428Z,61.53
2022-09-10T08:56:17.718Z,63.72
2022-09-10T08:58:43.986Z,72.78
2022-09-10T09:01:10.310Z,80.35
2022-09-10T09:03:36.647Z,85.28
2022-09-10T09:06:02.914Z,67.25
2022-09-10T09:08:29.167Z,71.68
2022-09-10T09:10:55.451Z,64.40
2022-09-10T09:13:22.165Z,69.95
2022-09-10T09:15:51.555Z,72.18
2022-09-10T09:18:17.889Z,69.97
2022-09-10T09:20:44.804Z,69.68
2022-09-10T09:23:10.995Z,68.30
2022-09-10T09:25:37.254Z,73.13
2022-09-10T09:28:03.540Z,82.57
2022-09-10T09:30:30.121Z,95.03
2022-09-10T09:32:56.788Z,114.10
2022-09-10T09:35:23.751Z,117.35
2022-09-10T09:37:50.143Z,120.30
2022-09-10T09:40:16.413Z,95.03
2022-09-10T09:42:42.679Z,106.70
2022-09-10T09:45:08.943Z,126.63
2022-09-10T09:47:35.213Z,95.18
2022-09-10T09:50:01.474Z,117.75
2022-09-10T09:52:27.741Z,115.60
2022-09-10T09:57:42.576Z,86.45
2022-09-10T10:00:10.690Z,121.30
2022-09-10T10:02:37.039Z,107.50
2022-09-10T10:05:03.330Z,114.90
2022-09-10T10:07:31.581Z,106.85
2022-09-10T10:09:57.869Z,106.03
2022-09-10T10:12:24.123Z,125.30
2022-09-10T10:14:51.331Z,118.07
2022-09-10T10:17:17.587Z,109.10
2022-09-10T10:19:44.309Z,77.10
2022-09-10T10:22:11.517Z,131.82
2022-09-10T10:24:37.787Z,130.68
2022-09-10T10:27:04.080Z,100.35
2022-09-10T10:29:30.346Z,92.70
2022-09-10T10:31:57.389Z,119.93
2022-09-10T10:34:23.652Z,131.80
2022-09-10T10:36:52.204Z,120.68
2022-09-10T10:39:19.212Z,119.10
2022-09-10T10:41:45.472Z,127.28
2022-09-10T10:44:12.600Z,77.88
2022-09-10T10:46:38.900Z,108.28
2022-09-10T10:49:05.280Z,78.93
2022-09-10T10:51:32.012Z,135.20
2022-09-10T10:53:58.271Z,82.20
2022-09-10T10:56:25.992Z,133.38
2022-09-10T10:58:54.427Z,120.88
2022-09-10T11:01:20.990Z,90.38
2022-09-10T11:03:48.754Z,89.00
2022-09-10T11:06:15.012Z,99.05
2022-09-10T11:08:42.216Z,75.55
2022-09-10T11:11:08.991Z,91.63
2022-09-10T11:13:35.261Z,108.68
2022-09-10T11:16:01.621Z,115.93
2022-09-10T11:18:28.300Z,133.25
2022-09-10T11:20:54.581Z,125.20
2022-09-10T11:23:20.863Z,128.18
2022-09-10T11:25:47.121Z,91.30
2022-09-10T11:28:13.400Z,112.90
2022-09-10T11:30:40.168Z,120.90
2022-09-10T11:33:09.934Z,119.30
2022-09-10T11:35:36.850Z,116.00
2022-09-10T11:38:03.055Z,144.83
2022-09-10T11:40:29.328Z,120.85
2022-09-10T11:42:56.254Z,127.68
2022-09-10T11:45:23.047Z,125.40
2022-09-10T11:47:49.318Z,145.32
2022-09-10T11:50:15.606Z,108.95
2022-09-10T11:52:42.031Z,130.65
2022-09-10T11:55:08.440Z,95.85
2022-09-10T11:57:35.080Z,108.13
2022-09-10T12:00:01.355Z,83.97
2022-09-10T12:02:27.654Z,116.30
2022-09-10T12:04:53.957Z,119.10
2022-09-10T12:07:21.031Z,85.97
2022-09-10T12:09:47.283Z,99.57
2022-09-10T12:12:14.040Z,80.85
2022-09-10T12:14:40.866Z,93.30
2022-09-10T12:17:08.638Z,74.43
2022-09-10T12:22:02.309Z,78.85
2022-09-10T12:24:29.228Z,70.68
2022-09-10T12:26:55.456Z,70.37
2022-09-10T12:29:21.705Z,88.03
2022-09-10T12:31:48.263Z,72.88
2022-09-10T12:34:14.531Z,75.68
2022-09-10T12:36:40.844Z,81.18
2022-09-10T12:39:07.112Z,102.38
2022-09-10T12:41:36.049Z,111.50
2022-09-10T12:44:02.319Z,85.15
2022-09-10T12:46:28.807Z,90.55
2022-09-10T12:48:58.907Z,101.07
2022-09-10T12:51:25.164Z,98.95
2022-09-10T12:53:51.426Z,96.78
2022-09-10T12:56:17.685Z,103.80
2022-09-10T12:58:43.969Z,89.68
2022-09-10T13:01:10.311Z,101.43
2022-09-10T13:03:36.704Z,86.88
2022-09-10T13:06:04.153Z,86.38
2022-09-10T13:08:30.890Z,98.95
2022-09-10T13:11:01.123Z,125.00
2022-09-10T13:13:27.531Z,97.45
2022-09-10T13:15:53.828Z,97.45
2022-09-10T13:18:20.121Z,129.20
2022-09-10T13:20:46.408Z,118.25
2022-09-10T13:23:12.669Z,98.55
2022-09-10T13:25:40.379Z,106.32
2022-09-10T13:28:06.649Z,118.35
2022-09-10T13:30:32.933Z,106.90
2022-09-10T13:32:59.197Z,123.50
2022-09-10T13:35:27.310Z,117.53
2022-09-10T13:37:53.616Z,120.75
2022-09-10T13:40:19.879Z,119.18
2022-09-10T13:42:46.162Z,121.82
2022-09-10T13:45:13.442Z,132.65
2022-09-10T13:47:39.732Z,134.30
2022-09-10T13:50:06.004Z,125.40
2022-09-10T13:52:32.592Z,115.20
2022-09-10T13:54:58.865Z,118.82
2022-09-10T13:57:25.119Z,103.32
2022-09-10T13:59:51.380Z,132.73
2022-09-10T14:02:19.710Z,103.90
2022-09-10T14:04:46.461Z,97.72
2022-09-10T14:07:13.047Z,94.38
2022-09-10T14:09:39.381Z,91.82
2022-09-10T14:12:05.639Z,85.05
2022-09-10T14:14:32.310Z,80.88
2022-09-10T14:16:58.609Z,77.65
2022-09-10T14:19:24.949Z,76.72
2022-09-10T14:21:54.301Z,82.18
2022-09-10T14:24:21.293Z,77.43
2022-09-10T14:26:47.492Z,80.50
2022-09-10T14:29:13.769Z,74.95
2022-09-10T14:31:40.437Z,77.63
2022-09-10T14:34:06.688Z,77.15
2022-09-10T14:36:35.715Z,99.38
2022-09-10T14:39:01.986Z,91.22
2022-09-10T14:41:28.352Z,95.78
2022-09-10T14:43:55.248Z,114.03
2022-09-10T14:46:21.462Z,158.40
2022-09-10T14:48:47.738Z,124.00
2022-09-10T14:51:14.353Z,135.57
2022-09-10T14:53:40.742Z,140.75
2022-09-10T14:56:07.125Z,115.53
2022-09-10T14:58:33.689Z,137.77
2022-09-10T15:00:59.950Z,116.68
2022-09-10T15:03:26.225Z,130.40
2022-09-10T15:05:52.529Z,99.35
2022-09-10T15:08:18.805Z,92.13
2022-09-10T15:10:45.061Z,81.93
2022-09-10T15:13:11.317Z,84.35
2022-09-10T15:15:37.610Z,90.25
2022-09-10T15:18:03.954Z,129.00
2022-09-10T15:20:31.296Z,127.05
2022-09-10T15:22:57.595Z,133.13
2022-09-10T15:25:23.863Z,99.03
2022-09-10T15:27:50.258Z,95.95
2022-09-10T15:30:16.520Z,103.65
2022-09-10T15:32:42.833Z,97.50
2022-09-10T15:35:09.524Z,92.45
2022-09-10T15:37:35.787Z,111.03
2022-09-10T15:40:02.095Z,111.65
2022-09-10T15:42:28.411Z,95.47
2022-09-10T15:44:54.683Z,97.72
2022-09-10T15:47:20.991Z,103.78
2022-09-10T15:49:47.243Z,99.82
2022-09-10T15:52:13.532Z,111.15
2022-09-10T15:54:39.787Z,118.60
2022-09-10T15:57:06.748Z,123.10
2022-09-10T15:59:32.935Z,96.47
2022-09-10T16:01:59.237Z,110.75
2022-09-10T16:04:25.947Z,128.65
2022-09-10T16:06:52.208Z,138.73
2022-09-10T16:09:18.472Z,109.20
2022-09-10T16:11:45.352Z,110.22
2022-09-10T16:14:11.792Z,112.35
2022-09-10T16:16:38.071Z,131.30
2022-09-10T16:19:04.450Z,114.10
2022-09-10T16:21:30.950Z,102.57
2022-09-10T16:23:57.216Z,108.20
2022-09-10T16:26:23.474Z,105.00
2022-09-10T16:28:49.741Z,125.25
2022-09-10T16:31:16.048Z,108.28
2022-09-10T16:33:42.387Z,81.25
2022-09-10T16:36:08.649Z,106.97
2022-09-10T16:38:34.913Z,117.85
2022-09-10T16:41:01.355Z,94.80
2022-09-10T16:43:28.507Z,110.15
2022-09-10T16:45:54.771Z,100.55
2022-09-10T16:48:21.365Z,110.22
2022-09-10T16:50:47.645Z,105.82
2022-09-10T16:53:14.046Z,111.15
2022-09-10T16:55:40.311Z,95.95
2022-09-10T16:58:06.603Z,96.35
2022-09-10T17:00:32.928Z,112.40
2022-09-10T17:02:59.231Z,101.10
2022-09-10T17:05:25.504Z,103.03
2022-09-10T17:07:52.251Z,111.57
2022-09-10T17:10:20.610Z,110.70
2022-09-10T17:12:46.869Z,98.85
2022-09-10T17:15:13.140Z,105.93
2022-09-10T17:17:39.391Z,87.57
2022-09-10T17:20:07.213Z,82.30
2022-09-10T17:24:59.687Z,69.13
2022-09-10T17:27:27.624Z,68.15
2022-09-10T17:32:20.083Z,76.25
2022-09-10T17:34:47.302Z,68.22
2022-09-10T17:37:13.568Z,68.38
2022-09-10T17:39:39.895Z,74.60
2022-09-10T17:42:06.159Z,79.25
2022-09-10T17:44:32.497Z,84.35
2022-09-10T17:47:01.480Z,83.07
2022-09-10T17:49:27.764Z,79.05
2022-09-10T17:51:54.031Z,81.43
2022-09-10T17:54:20.307Z,76.22
2022-09-10T17:56:46.571Z,82.50
2022-09-10T17:59:13.254Z,80.80
2022-09-10T18:01:39.552Z,81.15
2022-09-10T18:04:05.863Z,78.70
2022-09-10T18:06:32.351Z,87.50
2022-09-10T18:08:59.031Z,80.93
2022-09-10T18:11:27.021Z,87.50
2022-09-10T18:13:53.296Z,85.20
2022-09-10T18:16:21.418Z,81.43
2022-09-10T18:18:47.684Z,80.97
2022-09-10T18:21:13.957Z,88.70
2022-09-10T18:23:41.337Z,91.57
2022-09-10T18:26:07.687Z,98.60
2022-09-10T18:28:33.956Z,97.47
2022-09-10T18:31:00.268Z,94.53
2022-09-10T18:33:26.620Z,80.57
2022-09-10T18:35:52.885Z,86.68
2022-09-10T18:38:19.167Z,81.97
2022-09-10T18:40:45.459Z,79.43
2022-09-10T18:43:12.201Z,78.15
2022-09-10T18:45:38.759Z,82.20
2022-09-10T18:48:05.023Z,75.18
2022-09-10T18:50:31.350Z,75.28
2022-09-10T18:52:58.728Z,66.95
2022-09-10T18:55:25.003Z,62.45
2022-09-10T18:57:51.300Z,66.18
2022-09-10T19:00:17.566Z,59.78
2022-09-10T19:02:45.957Z,58.38
2022-09-10T19:05:12.740Z,60.78
2022-09-10T19:07:39.090Z,64.68
2022-09-10T19:10:06.855Z,69.00
2022-09-10T19:12:33.157Z,75.82
2022-09-10T19:14:59.607Z,81.55
2022-09-10T19:17:25.859Z,79.78
2022-09-10T19:19:52.115Z,91.38
2022-09-10T19:22:18.398Z,83.13
2022-09-10T19:24:54.654Z,84.65
2022-09-10T19:27:21.789Z,80.90
2022-09-10T19:29:49.594Z,91.38
2022-09-10T19:32:16.979Z,93.30
2022-09-10T19:34:43.462Z,95.03
2022-09-10T19:37:09.791Z,89.80
2022-09-10T19:39:36.107Z,98.63
2022-09-10T19:42:02.403Z,95.45
2022-09-10T19:44:28.655Z,89.80
2022-09-10T19:46:55.266Z,91.85
2022-09-10T19:49:22.154Z,89.05
2022-09-10T19:51:48.426Z,84.25
2022-09-10T19:54:14.699Z,83.03
2022-09-10T19:56:42.182Z,88.78
2022-09-10T19:59:08.731Z,89.10
2022-09-10T20:01:35.561Z,74.90
2022-09-10T20:04:01.869Z,93.32
2022-09-10T20:06:28.151Z,88.80
2022-09-10T20:08:54.468Z,90.25
2022-09-10T20:11:20.745Z,90.07
2022-09-10T20:13:47.015Z,82.22
2022-09-10T20:16:13.329Z,80.78
2022-09-10T20:18:39.940Z,80.80
2022-09-10T20:21:06.228Z,91.40
2022-09-10T20:23:32.491Z,86.78
2022-09-10T20:25:59.242Z,83.25
2022-09-10T20:28:25.499Z,84.40
2022-09-10T20:30:51.782Z,97.55
2022-09-10T20:33:18.083Z,85.32
2022-09-10T20:35:44.767Z,76.45
2022-09-10T20:38:11.019Z,78.78
2022-09-10T20:40:37.327Z,86.32
2022-09-10T20:43:03.579Z,84.75
2022-09-10T20:45:31.084Z,82.43
2022-09-10T20:47:59.699Z,89.25
2022-09-10T20:50:27.382Z,98.75
2022-09-10T20:52:53.636Z,98.90
2022-09-10T20:55:20.004Z,81.38
2022-09-10T20:57:46.265Z,71.07
2022-09-10T21:00:12.710Z,69.80
2022-09-10T21:02:39.124Z,65.07
2022-09-10T21:05:06.009Z,66.68
2022-09-10T21:07:32.279Z,68.80
2022-09-10T21:09:58.535Z,64.90
2022-09-10T21:12:24.789Z,77.07
2022-09-10T21:14:51.103Z,79.45
2022-09-10T21:17:17.356Z,59.10
2022-09-10T21:19:43.624Z,71.82
2022-09-10T21:22:09.879Z,68.25
2022-09-10T21:24:36.151Z,90.72
2022-09-10T21:27:03.553Z,82.20
2022-09-10T21:29:29.861Z,89.57
2022-09-10T21:31:56.947Z,88.18
2022-09-10T21:34:23.479Z,85.80
2022-09-10T21:36:49.740Z,87.28
2022-09-10T21:39:16.017Z,92.03
2022-09-10T21:41:42.545Z,87.57
2022-09-10T21:44:09.142Z,92.57
2022-09-10T21:46:36.069Z,95.07
2022-09-10T21:49:03.426Z,80.47
2022-09-10T21:51:29.687Z,83.28
2022-09-10T21:53:56.188Z,77.57
2022-09-10T21:56:22.481Z,66.30
2022-09-10T21:58:48.735Z,69.15
2022-09-10T22:01:15.038Z,76.30
2022-09-10T22:03:41.342Z,77.82
2022-09-10T22:06:07.592Z,75.10
2022-09-10T22:08:33.849Z,91.85
2022-09-10T22:11:00.925Z,83.40
2022-09-10T22:13:28.388Z,88.13
2022-09-10T22:15:54.711Z,69.32
2022-09-10T22:18:20.988Z,79.68
2022-09-10T22:20:47.246Z,100.15
2022-09-10T22:23:14.375Z,97.93
2022-09-10T22:25:41.039Z,80.32
2022-09-10T22:28:07.302Z,83.35
2022-09-10T22:30:33.579Z,67.00
2022-09-10T22:32:59.843Z,90.80
2022-09-10T22:35:26.430Z,93.28
2022-09-10T22:37:52.683Z,67.53
2022-09-10T22:40:18.961Z,74.68
2022-09-10T22:42:45.241Z,88.70
2022-09-10T22:45:12.392Z,94.18
2022-09-10T22:47:38.666Z,106.50
2022-09-10T22:50:04.936Z,108.35
2022-09-10T22:52:34.086Z,127.15
2022-09-10T22:55:00.352Z,116.50
2022-09-10T22:57:26.615Z,113.07
2022-09-10T22:59:54.319Z,121.85
2022-09-10T23:02:20.606Z,117.32
2022-09-10T23:04:46.859Z,113.97
2022-09-10T23:07:13.115Z,116.32
2022-09-10T23:09:39.389Z,132.23
2022-09-10T23:12:05.659Z,113.40
2022-09-10T23:14:32.989Z,131.82
2022-09-10T23:16:59.241Z,117.28
2022-09-10T23:19:25.557Z,123.40
2022-09-10T23:21:52.111Z,126.75
2022-09-10T23:24:18.368Z,118.80
2022-09-10T23:26:44.624Z,113.97
2022-09-10T23:29:10.898Z,107.63
2022-09-10T23:31:37.264Z,109.22
2022-09-10T23:34:03.554Z,105.88
2022-09-10T23:36:31.379Z,104.68
2022-09-10T23:38:57.667Z,110.80
2022-09-10T23:41:24.117Z,109.32
2022-09-10T23:43:50.391Z,106.43
2022-09-10T23:46:16.679Z,103.80
2022-09-10T23:48:43.012Z,104.60
2022-09-10T23:51:11.175Z,103.22
2022-09-10T23:53:37.515Z,104.88
2022-09-10T23:56:03.808Z,103.30
2022-09-10T23:58:30.067Z,96.65
